createdAt,value
2022-11-03T00:00:16.300Z,39.79
2022-11-03T00:00:46.381Z,39.74
2022-11-03T00:01:16.574Z,39.81
2022-11-03T00:01:46.897Z,39.83
2022-11-03T00:02:16.815Z,39.79
2022-11-03T00:02:46.814Z,39.82
2022-11-03T00:03:16.801Z,39.74
2022-11-03T00:03:46.896Z,39.78
2022-11-03T00:04:16.994Z,39.78
2022-11-03T00:04:47.053Z,39.76
2022-11-03T00:05:17.131Z,39.72
2022-11-03T00:05:47.211Z,39.74
2022-11-03T00:06:17.292Z,39.74
2022-11-03T00:06:47.377Z,39.80
2022-11-03T00:07:17.451Z,39.79
2022-11-03T00:07:47.536Z,39.76
2022-11-03T00:08:17.623Z,39.75
2022-11-03T00:08:47.707Z,39.74
2022-11-03T00:09:17.781Z,39.72
2022-11-03T00:09:47.855Z,39.74
2022-11-03T00:10:17.941Z,39.75
2022-11-03T00:10:48.027Z,39.74
2022-11-03T00:11:18.107Z,39.70
2022-11-03T00:11:48.198Z,39.77
2022-11-03T00:12:18.275Z,39.80
2022-11-03T00:12:48.367Z,39.89
2022-11-03T00:13:18.455Z,39.94
2022-11-03T00:13:48.532Z,39.90
2022-11-03T00:14:18.609Z,39.94
2022-11-03T00:14:48.695Z,39.94
2022-11-03T00:15:18.778Z,40.04
2022-11-03T00:15:48.862Z,40.00
2022-11-03T00:16:18.942Z,39.97
2022-11-03T00:16:49.031Z,40.04
2022-11-03T00:17:19.107Z,40.05
2022-11-03T00:17:49.194Z,40.04
2022-11-03T00:18:19.274Z,40.05
2022-11-03T00:18:49.351Z,40.10
2022-11-03T00:19:19.456Z,40.14
2022-11-03T00:19:49.526Z,40.12
2022-11-03T00:20:19.604Z,40.14
2022-11-03T00:20:49.685Z,40.17
2022-11-03T00:21:19.778Z,40.16
2022-11-03T00:21:49.867Z,40.11
2022-11-03T00:22:19.948Z,40.13
2022-11-03T00:22:50.029Z,40.09
2022-11-03T00:23:20.107Z,40.07
2022-11-03T00:23:50.184Z,40.04
2022-11-03T00:24:20.214Z,40.05
2022-11-03T00:24:50.254Z,40.10
2022-11-03T00:25:20.289Z,40.06
2022-11-03T00:25:50.325Z,40.09
2022-11-03T00:26:20.389Z,40.06
2022-11-03T00:26:50.420Z,40.03
2022-11-03T00:27:20.464Z,40.07
2022-11-03T00:27:50.520Z,40.12
2022-11-03T00:28:20.565Z,40.10
2022-11-03T00:28:50.615Z,40.14
2022-11-03T00:29:20.663Z,40.11
2022-11-03T00:29:50.697Z,40.10
2022-11-03T00:30:20.734Z,40.07
2022-11-03T00:30:50.775Z,40.07
2022-11-03T00:31:20.822Z,40.01
2022-11-03T00:31:50.867Z,40.05
2022-11-03T00:32:20.909Z,40.01
2022-11-03T00:32:50.940Z,40.01
2022-11-03T00:33:20.972Z,39.96
2022-11-03T00:33:51.034Z,40.00
2022-11-03T00:34:21.142Z,39.97
2022-11-03T00:34:51.195Z,39.93
2022-11-03T00:35:21.272Z,39.97
2022-11-03T00:35:51.365Z,39.99
2022-11-03T00:36:21.458Z,39.97
2022-11-03T00:36:51.542Z,39.93
2022-11-03T00:37:21.617Z,39.96
2022-11-03T00:37:51.700Z,39.93
2022-11-03T00:38:21.785Z,39.90
2022-11-03T00:38:51.872Z,39.91
2022-11-03T00:39:21.952Z,39.96
2022-11-03T00:39:52.033Z,39.90
2022-11-03T00:40:22.116Z,39.91
2022-11-03T00:40:52.194Z,39.96
2022-11-03T00:41:22.273Z,39.90
2022-11-03T00:41:52.348Z,39.94
2022-11-03T00:42:22.434Z,39.87
2022-11-03T00:42:52.527Z,39.86
2022-11-03T00:43:22.605Z,39.86
2022-11-03T00:43:52.689Z,39.85
2022-11-03T00:44:22.771Z,39.92
2022-11-03T00:44:52.852Z,39.86
2022-11-03T00:45:22.940Z,39.85
2022-11-03T00:45:53.016Z,39.86
2022-11-03T00:46:23.101Z,39.84
2022-11-03T00:46:53.198Z,39.85
2022-11-03T00:47:24.330Z,39.81
2022-11-03T00:48:23.400Z,39.78
2022-11-03T00:48:53.477Z,39.79
2022-11-03T00:49:23.587Z,39.78
2022-11-03T00:49:53.651Z,39.76
2022-11-03T00:50:23.732Z,39.73
2022-11-03T00:50:53.813Z,39.78
2022-11-03T00:51:23.904Z,39.75
2022-11-03T00:51:53.990Z,39.79
2022-11-03T00:52:24.069Z,39.77
2022-11-03T00:52:54.154Z,39.73
2022-11-03T00:53:24.240Z,39.77
2022-11-03T00:53:54.331Z,39.75
2022-11-03T00:54:24.421Z,39.73
2022-11-03T00:54:55.267Z,39.76
2022-11-03T00:55:24.514Z,39.74
2022-11-03T00:55:54.596Z,39.70
2022-11-03T00:56:24.688Z,39.69
2022-11-03T00:56:54.768Z,39.73
2022-11-03T00:57:24.842Z,39.73
2022-11-03T00:57:54.928Z,39.79
2022-11-03T00:58:25.017Z,39.81
2022-11-03T00:58:55.101Z,39.87
2022-11-03T00:59:25.180Z,39.96
2022-11-03T00:59:55.263Z,39.95
2022-11-03T01:00:25.349Z,40.03
2022-11-03T01:00:55.469Z,40.08
2022-11-03T01:01:25.708Z,40.11
2022-11-03T01:01:55.765Z,40.05
2022-11-03T01:02:25.613Z,40.11
2022-11-03T01:02:55.604Z,40.15
2022-11-03T01:03:25.691Z,40.17
2022-11-03T01:03:55.775Z,40.19
2022-11-03T01:04:25.882Z,40.25
2022-11-03T01:04:55.931Z,40.20
2022-11-03T01:05:26.023Z,40.20
2022-11-03T01:05:56.107Z,40.18
2022-11-03T01:06:26.178Z,40.24
2022-11-03T01:06:56.261Z,40.24
2022-11-03T01:07:26.352Z,40.24
2022-11-03T01:07:56.585Z,40.25
2022-11-03T01:08:27.708Z,40.34
2022-11-03T01:08:56.655Z,40.23
2022-11-03T01:09:26.728Z,40.27
2022-11-03T01:09:56.826Z,40.29
2022-11-03T01:10:26.909Z,40.31
2022-11-03T01:10:56.997Z,40.35
2022-11-03T01:11:27.068Z,40.37
2022-11-03T01:11:57.163Z,40.40
2022-11-03T01:12:27.252Z,40.35
2022-11-03T01:12:57.335Z,40.38
2022-11-03T01:13:27.420Z,40.35
2022-11-03T01:13:57.490Z,40.40
2022-11-03T01:14:27.574Z,40.35
2022-11-03T01:14:57.657Z,40.39
2022-11-03T01:15:27.741Z,40.37
2022-11-03T01:15:57.825Z,40.34
2022-11-03T01:16:27.908Z,40.31
2022-11-03T01:16:57.995Z,40.33
2022-11-03T01:17:28.083Z,40.33
2022-11-03T01:17:58.166Z,40.29
2022-11-03T01:18:28.246Z,40.28
2022-11-03T01:18:58.332Z,40.28
2022-11-03T01:19:28.440Z,40.26
2022-11-03T01:19:58.504Z,40.17
2022-11-03T01:20:28.580Z,40.20
2022-11-03T01:20:58.661Z,40.22
2022-11-03T01:21:28.760Z,40.21
2022-11-03T01:21:58.849Z,40.20
2022-11-03T01:22:28.927Z,40.19
2022-11-03T01:22:59.007Z,40.17
2022-11-03T01:23:29.097Z,40.09
2022-11-03T01:23:59.167Z,40.11
2022-11-03T01:24:29.214Z,40.12
2022-11-03T01:24:59.253Z,40.15
2022-11-03T01:25:29.278Z,40.14
2022-11-03T01:25:59.323Z,40.19
2022-11-03T01:26:29.374Z,40.12
2022-11-03T01:26:59.410Z,40.08
2022-11-03T01:27:29.447Z,40.09
2022-11-03T01:27:59.563Z,40.05
2022-11-03T01:28:29.593Z,40.07
2022-11-03T01:28:59.637Z,40.10
2022-11-03T01:29:29.669Z,40.01
2022-11-03T01:29:59.715Z,39.99
2022-11-03T01:30:29.744Z,40.04
2022-11-03T01:30:59.798Z,39.95
2022-11-03T01:31:29.844Z,39.97
2022-11-03T01:31:59.895Z,39.95
2022-11-03T01:32:29.914Z,39.92
2022-11-03T01:32:59.962Z,39.93
2022-11-03T01:33:29.998Z,39.88
2022-11-03T01:34:00.080Z,39.96
2022-11-03T01:34:30.153Z,39.95
2022-11-03T01:35:00.253Z,39.92
2022-11-03T01:35:30.329Z,39.97
2022-11-03T01:36:00.423Z,39.93
2022-11-03T01:36:30.507Z,39.92
2022-11-03T01:37:00.585Z,39.91
2022-11-03T01:37:30.666Z,39.92
2022-11-03T01:38:00.755Z,39.92
2022-11-03T01:38:30.846Z,39.92
2022-11-03T01:39:00.926Z,39.88
2022-11-03T01:39:31.009Z,39.92
2022-11-03T01:40:01.097Z,39.91
2022-11-03T01:40:31.182Z,39.85
2022-11-03T01:41:01.262Z,39.84
2022-11-03T01:41:31.341Z,39.81
2022-11-03T01:42:01.432Z,39.80
2022-11-03T01:42:31.517Z,39.77
2022-11-03T01:43:01.600Z,39.81
2022-11-03T01:43:31.679Z,39.79
2022-11-03T01:44:01.759Z,39.77
2022-11-03T01:44:31.839Z,39.75
2022-11-03T01:45:01.923Z,39.79
2022-11-03T01:45:32.002Z,39.81
2022-11-03T01:46:02.078Z,39.77
2022-11-03T01:46:32.171Z,39.84
2022-11-03T01:47:02.258Z,39.89
2022-11-03T01:47:32.341Z,39.90
2022-11-03T01:48:02.424Z,39.93
2022-11-03T01:48:32.500Z,39.91
2022-11-03T01:49:02.583Z,39.96
2022-11-03T01:49:32.667Z,40.02
2022-11-03T01:50:02.775Z,39.98
2022-11-03T01:50:32.833Z,40.02
2022-11-03T01:51:02.936Z,40.04
2022-11-03T01:51:33.016Z,40.07
2022-11-03T01:52:03.101Z,40.11
2022-11-03T01:52:33.183Z,40.14
2022-11-03T01:53:03.604Z,40.18
2022-11-03T01:53:33.270Z,40.21
2022-11-03T01:54:03.334Z,40.21
2022-11-03T01:54:33.411Z,40.20
2022-11-03T01:55:03.489Z,40.21
2022-11-03T01:55:33.578Z,40.22
2022-11-03T01:56:03.670Z,40.17
2022-11-03T01:56:33.757Z,40.17
2022-11-03T01:57:03.837Z,40.22
2022-11-03T01:57:33.916Z,40.28
2022-11-03T01:58:03.999Z,40.33
2022-11-03T01:58:34.087Z,40.34
2022-11-03T01:59:04.168Z,40.31
2022-11-03T01:59:34.247Z,40.30
2022-11-03T02:00:04.417Z,40.29
2022-11-03T02:00:34.350Z,40.29
2022-11-03T02:01:04.493Z,40.27
2022-11-03T02:01:34.694Z,40.28
2022-11-03T02:02:04.781Z,40.28
2022-11-03T02:02:34.798Z,40.31
2022-11-03T02:03:05.134Z,40.24
2022-11-03T02:03:34.863Z,40.21
2022-11-03T02:04:04.945Z,40.20
2022-11-03T02:04:35.029Z,40.28
2022-11-03T02:05:05.112Z,40.28
2022-11-03T02:05:35.219Z,40.25
2022-11-03T02:06:05.280Z,40.28
2022-11-03T02:06:35.354Z,40.28
2022-11-03T02:07:05.440Z,40.24
2022-11-03T02:07:35.522Z,40.26
2022-11-03T02:08:05.670Z,40.19
2022-11-03T02:08:35.628Z,40.23
2022-11-03T02:09:05.705Z,40.18
2022-11-03T02:09:35.791Z,40.15
2022-11-03T02:10:05.876Z,40.14
2022-11-03T02:10:35.950Z,40.14
2022-11-03T02:11:06.039Z,40.10
2022-11-03T02:11:36.137Z,40.08
2022-11-03T02:12:06.228Z,40.03
2022-11-03T02:12:36.311Z,40.07
2022-11-03T02:13:06.760Z,40.09
2022-11-03T02:13:36.470Z,40.07
2022-11-03T02:14:06.557Z,40.05
2022-11-03T02:14:36.639Z,40.02
2022-11-03T02:15:06.719Z,40.07
2022-11-03T02:15:36.801Z,40.07
2022-11-03T02:16:06.886Z,40.04
2022-11-03T02:16:36.975Z,40.02
2022-11-03T02:17:07.052Z,40.01
2022-11-03T02:17:37.135Z,40.04
2022-11-03T02:18:07.222Z,40.02
2022-11-03T02:18:37.309Z,40.02
2022-11-03T02:19:07.388Z,40.02
2022-11-03T02:19:37.467Z,39.95
2022-11-03T02:20:07.552Z,40.02
2022-11-03T02:20:37.635Z,39.98
2022-11-03T02:21:07.740Z,39.95
2022-11-03T02:21:37.798Z,39.94
2022-11-03T02:22:07.886Z,39.94
2022-11-03T02:22:37.974Z,39.91
2022-11-03T02:23:08.489Z,39.88
2022-11-03T02:23:38.065Z,39.88
2022-11-03T02:24:08.107Z,39.86
2022-11-03T02:24:38.146Z,39.86
2022-11-03T02:25:08.189Z,39.87
2022-11-03T02:25:38.228Z,39.84
2022-11-03T02:26:08.279Z,39.85
2022-11-03T02:26:38.322Z,39.84
2022-11-03T02:27:08.362Z,39.82
2022-11-03T02:27:38.398Z,39.85
2022-11-03T02:28:08.450Z,39.81
2022-11-03T02:28:38.480Z,39.79
2022-11-03T02:29:08.513Z,39.79
2022-11-03T02:29:38.562Z,39.74
2022-11-03T02:30:08.592Z,39.75
2022-11-03T02:30:38.641Z,39.74
2022-11-03T02:31:08.696Z,39.73
2022-11-03T02:31:38.730Z,39.73
2022-11-03T02:32:08.770Z,39.78
2022-11-03T02:32:38.816Z,39.75
2022-11-03T02:33:09.222Z,39.86
2022-11-03T02:33:38.926Z,39.87
2022-11-03T02:34:09.001Z,39.99
2022-11-03T02:34:39.098Z,40.00
2022-11-03T02:35:09.185Z,40.00
2022-11-03T02:35:39.264Z,40.04
2022-11-03T02:36:09.343Z,40.07
2022-11-03T02:36:39.461Z,40.07
2022-11-03T02:37:09.517Z,40.07
2022-11-03T02:37:39.600Z,40.06
2022-11-03T02:38:09.676Z,40.02
2022-11-03T02:38:39.762Z,40.06
2022-11-03T02:39:09.845Z,40.08
2022-11-03T02:39:39.928Z,40.16
2022-11-03T02:40:10.010Z,40.20
2022-11-03T02:40:40.089Z,40.28
2022-11-03T02:41:10.163Z,40.29
2022-11-03T02:41:40.256Z,40.29
2022-11-03T02:42:10.338Z,40.28
2022-11-03T02:42:40.428Z,40.34
2022-11-03T02:43:10.507Z,40.28
2022-11-03T02:43:40.598Z,40.30
2022-11-03T02:44:10.684Z,40.31
2022-11-03T02:44:40.761Z,40.31
2022-11-03T02:45:13.332Z,40.35
2022-11-03T02:45:40.897Z,40.32
2022-11-03T02:46:10.984Z,40.35
2022-11-03T02:46:41.070Z,40.34
2022-11-03T02:47:11.150Z,40.33
2022-11-03T02:47:41.288Z,40.33
2022-11-03T02:48:11.232Z,40.32
2022-11-03T02:48:41.327Z,40.32
2022-11-03T02:49:11.413Z,40.32
2022-11-03T02:49:41.584Z,40.29
2022-11-03T02:50:11.545Z,40.31
2022-11-03T02:50:41.624Z,40.33
2022-11-03T02:51:11.715Z,40.35
2022-11-03T02:51:41.796Z,40.35
2022-11-03T02:52:11.910Z,40.35
2022-11-03T02:52:41.977Z,40.34
2022-11-03T02:53:12.059Z,40.35
2022-11-03T02:53:42.143Z,40.39
2022-11-03T02:54:12.218Z,40.39
2022-11-03T02:54:42.302Z,40.41
2022-11-03T02:55:12.389Z,40.41
2022-11-03T02:55:42.478Z,40.45
2022-11-03T02:56:12.560Z,40.39
2022-11-03T02:56:42.641Z,40.41
2022-11-03T02:57:12.725Z,40.34
2022-11-03T02:57:42.814Z,40.34
2022-11-03T02:58:12.895Z,40.39
2022-11-03T02:58:42.976Z,40.28
2022-11-03T02:59:13.052Z,40.30
2022-11-03T02:59:43.137Z,40.27
2022-11-03T03:00:13.227Z,40.28
2022-11-03T03:00:43.407Z,40.21
2022-11-03T03:01:13.564Z,40.19
2022-11-03T03:01:43.586Z,40.19
2022-11-03T03:02:13.584Z,40.16
2022-11-03T03:02:43.478Z,40.20
2022-11-03T03:03:13.552Z,40.10
2022-11-03T03:03:43.631Z,40.09
2022-11-03T03:04:13.715Z,40.04
2022-11-03T03:04:43.794Z,40.05
2022-11-03T03:05:13.870Z,40.10
2022-11-03T03:05:43.945Z,40.12
2022-11-03T03:06:14.025Z,40.09
2022-11-03T03:06:44.120Z,40.03
2022-11-03T03:07:14.234Z,40.07
2022-11-03T03:07:44.279Z,40.05
2022-11-03T03:08:14.361Z,40.04
2022-11-03T03:08:44.445Z,40.00
2022-11-03T03:09:14.526Z,40.02
2022-11-03T03:09:44.608Z,40.03
2022-11-03T03:10:14.687Z,40.02
2022-11-03T03:10:44.772Z,40.01
2022-11-03T03:11:14.852Z,39.99
2022-11-03T03:11:44.937Z,40.01
2022-11-03T03:12:15.018Z,39.97
2022-11-03T03:12:45.105Z,39.93
2022-11-03T03:13:15.189Z,39.93
2022-11-03T03:13:45.281Z,39.89
2022-11-03T03:14:15.357Z,39.88
2022-11-03T03:14:45.435Z,39.85
2022-11-03T03:15:15.520Z,39.81
2022-11-03T03:15:45.600Z,39.79
2022-11-03T03:16:15.684Z,39.80
2022-11-03T03:16:45.792Z,39.80
2022-11-03T03:17:15.860Z,39.79
2022-11-03T03:17:45.945Z,39.87
2022-11-03T03:18:16.020Z,39.83
2022-11-03T03:18:46.100Z,39.83
2022-11-03T03:19:16.188Z,39.91
2022-11-03T03:19:46.266Z,39.94
2022-11-03T03:20:16.356Z,40.00
2022-11-03T03:20:46.448Z,40.06
2022-11-03T03:21:16.522Z,40.07
2022-11-03T03:21:46.603Z,40.22
2022-11-03T03:22:16.710Z,40.21
2022-11-03T03:22:46.776Z,40.21
2022-11-03T03:23:17.434Z,40.26
2022-11-03T03:23:46.917Z,40.34
2022-11-03T03:24:16.926Z,40.35
2022-11-03T03:24:46.971Z,40.39
2022-11-03T03:25:17.001Z,40.43
2022-11-03T03:25:47.044Z,40.43
2022-11-03T03:26:17.086Z,40.46
2022-11-03T03:26:47.118Z,40.47
2022-11-03T03:27:17.171Z,40.43
2022-11-03T03:27:47.206Z,40.47
2022-11-03T03:28:17.243Z,40.44
2022-11-03T03:28:47.279Z,40.43
2022-11-03T03:29:17.317Z,40.44
2022-11-03T03:29:47.354Z,40.42
2022-11-03T03:30:17.393Z,40.40
2022-11-03T03:30:47.439Z,40.47
2022-11-03T03:31:17.486Z,40.48
2022-11-03T03:31:47.530Z,40.47
2022-11-03T03:32:17.581Z,40.45
2022-11-03T03:32:47.612Z,40.51
2022-11-03T03:33:17.744Z,40.46
2022-11-03T03:33:48.094Z,40.51
2022-11-03T03:34:34.075Z,40.50
2022-11-03T03:34:47.784Z,40.48
2022-11-03T03:35:17.882Z,40.48
2022-11-03T03:35:47.955Z,40.54
2022-11-03T03:36:18.032Z,40.47
2022-11-03T03:36:48.121Z,40.49
2022-11-03T03:37:18.204Z,40.55
2022-11-03T03:37:48.310Z,40.53
2022-11-03T03:38:18.368Z,40.57
2022-11-03T03:38:48.450Z,40.51
2022-11-03T03:39:18.534Z,40.47
2022-11-03T03:39:48.620Z,40.48
2022-11-03T03:40:18.701Z,40.51
2022-11-03T03:40:48.791Z,40.48
2022-11-03T03:41:18.875Z,40.48
2022-11-03T03:41:48.967Z,40.46
2022-11-03T03:42:19.044Z,40.50
2022-11-03T03:42:49.121Z,40.50
2022-11-03T03:43:19.210Z,40.48
2022-11-03T03:43:49.296Z,40.46
2022-11-03T03:44:19.380Z,40.47
2022-11-03T03:44:49.462Z,40.43
2022-11-03T03:45:19.542Z,40.43
2022-11-03T03:45:49.623Z,40.39
2022-11-03T03:46:19.709Z,40.38
2022-11-03T03:46:49.789Z,40.39
2022-11-03T03:47:19.865Z,40.35
2022-11-03T03:47:51.550Z,40.41
2022-11-03T03:48:20.032Z,40.41
2022-11-03T03:48:50.107Z,40.37
2022-11-03T03:49:20.180Z,40.40
2022-11-03T03:49:50.265Z,40.40
2022-11-03T03:50:20.344Z,40.34
2022-11-03T03:50:50.455Z,40.36
2022-11-03T03:51:20.520Z,40.32
2022-11-03T03:51:50.683Z,40.31
2022-11-03T03:52:20.633Z,40.34
2022-11-03T03:52:50.743Z,40.29
2022-11-03T03:53:20.790Z,40.20
2022-11-03T03:53:50.879Z,40.22
2022-11-03T03:54:20.966Z,40.21
2022-11-03T03:54:51.052Z,40.18
2022-11-03T03:55:21.194Z,40.16
2022-11-03T03:55:51.178Z,40.15
2022-11-03T03:56:21.254Z,40.14
2022-11-03T03:56:51.355Z,40.16
2022-11-03T03:57:21.440Z,40.20
2022-11-03T03:57:52.667Z,40.27
2022-11-03T03:58:21.597Z,40.24
2022-11-03T03:58:51.688Z,40.32
2022-11-03T03:59:21.780Z,40.32
2022-11-03T03:59:51.852Z,40.31
2022-11-03T04:00:21.931Z,40.28
2022-11-03T04:00:52.067Z,40.31
2022-11-03T04:01:22.159Z,40.31
2022-11-03T04:01:52.247Z,40.32
2022-11-03T04:02:22.241Z,40.36
2022-11-03T04:02:52.196Z,40.38
2022-11-03T04:03:22.289Z,40.36
2022-11-03T04:03:52.370Z,40.41
2022-11-03T04:04:22.453Z,40.39
2022-11-03T04:04:52.540Z,40.41
2022-11-03T04:05:22.526Z,40.44
2022-11-03T04:05:52.619Z,40.41
2022-11-03T04:06:22.692Z,40.43
2022-11-03T04:06:52.776Z,40.42
2022-11-03T04:07:22.866Z,40.38
2022-11-03T04:07:52.951Z,40.48
2022-11-03T04:08:23.054Z,40.42
2022-11-03T04:08:53.113Z,40.38
2022-11-03T04:09:23.188Z,40.41
2022-11-03T04:09:53.293Z,40.36
2022-11-03T04:10:23.370Z,40.36
2022-11-03T04:10:53.445Z,40.34
2022-11-03T04:11:23.520Z,40.32
2022-11-03T04:11:53.608Z,40.35
2022-11-03T04:12:23.698Z,40.41
2022-11-03T04:12:53.781Z,40.42
2022-11-03T04:13:23.844Z,40.49
2022-11-03T04:13:53.949Z,40.53
2022-11-03T04:14:24.019Z,40.53
2022-11-03T04:14:54.116Z,40.53
2022-11-03T04:15:24.175Z,40.50
2022-11-03T04:15:54.262Z,40.53
2022-11-03T04:16:24.340Z,40.53
2022-11-03T04:16:54.431Z,40.49
2022-11-03T04:17:24.503Z,40.45
2022-11-03T04:17:54.584Z,40.45
2022-11-03T04:18:24.665Z,40.46
2022-11-03T04:18:54.749Z,40.49
2022-11-03T04:19:24.840Z,40.48
2022-11-03T04:19:54.927Z,40.44
2022-11-03T04:20:24.999Z,40.48
2022-11-03T04:20:55.082Z,40.44
2022-11-03T04:21:25.162Z,40.45
2022-11-03T04:21:55.256Z,40.48
2022-11-03T04:22:25.272Z,40.47
2022-11-03T04:22:55.357Z,40.47
2022-11-03T04:23:25.451Z,40.50
2022-11-03T04:23:55.495Z,40.51
2022-11-03T04:24:25.523Z,40.48
2022-11-03T04:24:55.576Z,40.48
2022-11-03T04:25:25.606Z,40.52
2022-11-03T04:25:55.647Z,40.52
2022-11-03T04:26:25.695Z,40.45
2022-11-03T04:26:55.732Z,40.48
2022-11-03T04:27:25.770Z,40.45
2022-11-03T04:27:55.816Z,40.43
2022-11-03T04:28:25.856Z,40.42
2022-11-03T04:28:55.897Z,40.38
2022-11-03T04:29:25.924Z,40.36
2022-11-03T04:29:55.973Z,40.40
2022-11-03T04:30:26.020Z,40.39
2022-11-03T04:30:58.660Z,40.36
2022-11-03T04:31:26.165Z,40.35
2022-11-03T04:31:56.218Z,40.39
2022-11-03T04:32:26.255Z,40.40
2022-11-03T04:32:56.324Z,40.40
2022-11-03T04:33:26.371Z,40.32
2022-11-03T04:33:56.454Z,40.28
2022-11-03T04:34:26.516Z,40.24
2022-11-03T04:34:56.598Z,40.28
2022-11-03T04:35:26.676Z,40.28
2022-11-03T04:35:56.753Z,40.21
2022-11-03T04:36:26.850Z,40.25
2022-11-03T04:36:56.939Z,40.30
2022-11-03T04:37:27.023Z,40.25
2022-11-03T04:37:57.117Z,40.24
2022-11-03T04:38:27.170Z,40.23
2022-11-03T04:38:57.242Z,40.17
2022-11-03T04:39:27.228Z,40.18
2022-11-03T04:39:57.315Z,40.19
2022-11-03T04:40:27.404Z,40.24
2022-11-03T04:40:57.490Z,40.20
2022-11-03T04:41:27.520Z,40.16
2022-11-03T04:41:57.560Z,40.23
2022-11-03T04:42:27.640Z,40.19
2022-11-03T04:42:57.723Z,40.19
2022-11-03T04:43:27.809Z,40.16
2022-11-03T04:43:57.913Z,40.17
2022-11-03T04:44:27.985Z,40.15
2022-11-03T04:44:58.061Z,40.19
2022-11-03T04:45:28.140Z,40.10
2022-11-03T04:45:58.242Z,40.13
2022-11-03T04:46:28.334Z,40.12
2022-11-03T04:46:58.410Z,40.08
2022-11-03T04:47:28.486Z,40.05
2022-11-03T04:47:58.587Z,40.04
2022-11-03T04:48:28.650Z,40.04
2022-11-03T04:48:58.748Z,40.04
2022-11-03T04:49:28.814Z,40.04
2022-11-03T04:49:58.898Z,39.97
2022-11-03T04:50:28.995Z,39.97
2022-11-03T04:50:59.086Z,40.00
2022-11-03T04:51:29.169Z,39.99
2022-11-03T04:51:59.252Z,40.03
2022-11-03T04:52:29.332Z,39.97
2022-11-03T04:52:59.416Z,40.02
2022-11-03T04:53:29.494Z,40.05
2022-11-03T04:53:59.601Z,40.01
2022-11-03T04:54:29.657Z,40.01
2022-11-03T04:54:59.744Z,40.02
2022-11-03T04:55:29.830Z,40.02
2022-11-03T04:56:04.395Z,40.05
2022-11-03T04:56:29.992Z,40.03
2022-11-03T04:57:00.082Z,40.03
2022-11-03T04:57:30.167Z,40.01
2022-11-03T04:58:00.242Z,40.01
2022-11-03T04:58:30.323Z,40.07
2022-11-03T04:59:00.406Z,40.02
2022-11-03T04:59:30.487Z,40.04
2022-11-03T05:00:00.569Z,40.03
2022-11-03T05:00:30.650Z,39.97
2022-11-03T05:01:00.844Z,39.97
2022-11-03T05:01:30.988Z,39.96
2022-11-03T05:02:01.070Z,39.95
2022-11-03T05:02:30.895Z,39.94
2022-11-03T05:03:00.967Z,39.89
2022-11-03T05:03:31.055Z,39.91
2022-11-03T05:04:01.138Z,39.90
2022-11-03T05:04:31.218Z,39.86
2022-11-03T05:05:01.295Z,39.80
2022-11-03T05:05:31.372Z,39.76
2022-11-03T05:06:01.455Z,39.79
2022-11-03T05:06:31.544Z,39.78
2022-11-03T05:07:01.624Z,39.79
2022-11-03T05:07:31.713Z,39.79
2022-11-03T05:08:01.820Z,39.78
2022-11-03T05:08:31.899Z,39.73
2022-11-03T05:09:02.017Z,39.74
2022-11-03T05:09:32.059Z,39.74
2022-11-03T05:10:02.134Z,39.71
2022-11-03T05:10:32.217Z,39.71
2022-11-03T05:11:02.302Z,39.65
2022-11-03T05:11:32.391Z,39.66
2022-11-03T05:12:02.480Z,39.62
2022-11-03T05:12:32.566Z,39.62
2022-11-03T05:13:02.654Z,39.58
2022-11-03T05:13:32.731Z,39.61
2022-11-03T05:14:02.816Z,39.66
2022-11-03T05:14:32.896Z,39.62
2022-11-03T05:15:02.985Z,39.61
2022-11-03T05:15:33.081Z,39.58
2022-11-03T05:16:03.151Z,39.57
2022-11-03T05:16:33.242Z,39.59
2022-11-03T05:17:03.328Z,39.60
2022-11-03T05:17:33.414Z,39.57
2022-11-03T05:18:03.494Z,39.62
2022-11-03T05:18:33.578Z,39.61
2022-11-03T05:19:03.664Z,39.57
2022-11-03T05:19:33.750Z,39.58
2022-11-03T05:20:03.866Z,39.56
2022-11-03T05:20:36.193Z,39.54
2022-11-03T05:21:03.918Z,39.52
2022-11-03T05:21:34.010Z,39.60
2022-11-03T05:22:04.101Z,39.54
2022-11-03T05:22:34.183Z,39.48
2022-11-03T05:23:04.681Z,39.41
2022-11-03T05:23:34.280Z,39.20
2022-11-03T05:24:04.409Z,39.27
2022-11-03T05:24:34.371Z,39.30
2022-11-03T05:25:04.402Z,39.43
2022-11-03T05:25:34.427Z,39.52
2022-11-03T05:26:04.469Z,39.60
2022-11-03T05:26:34.632Z,39.65
2022-11-03T05:27:04.564Z,39.59
2022-11-03T05:27:34.613Z,39.70
2022-11-03T05:28:05.133Z,39.74
2022-11-03T05:28:34.743Z,39.71
2022-11-03T05:29:04.775Z,39.70
2022-11-03T05:29:34.823Z,39.74
2022-11-03T05:30:04.864Z,39.80
2022-11-03T05:30:34.897Z,39.78
2022-11-03T05:31:04.938Z,39.76
2022-11-03T05:31:34.989Z,39.76
2022-11-03T05:32:05.035Z,39.70
2022-11-03T05:32:35.064Z,39.70
2022-11-03T05:33:05.103Z,39.80
2022-11-03T05:33:35.142Z,39.76
2022-11-03T05:34:05.216Z,39.72
2022-11-03T05:34:35.300Z,39.72
2022-11-03T05:35:05.388Z,39.71
2022-11-03T05:35:35.468Z,39.70
2022-11-03T05:36:05.540Z,39.65
2022-11-03T05:36:35.637Z,39.70
2022-11-03T05:37:05.721Z,39.74
2022-11-03T05:37:35.812Z,39.81
2022-11-03T05:38:06.208Z,39.81
2022-11-03T05:38:35.952Z,39.75
2022-11-03T05:39:06.031Z,39.83
2022-11-03T05:39:36.124Z,39.92
2022-11-03T05:40:06.227Z,40.05
2022-11-03T05:40:36.283Z,40.01
2022-11-03T05:41:06.368Z,40.17
2022-11-03T05:41:36.552Z,40.42
2022-11-03T05:42:06.529Z,40.50
2022-11-03T05:42:36.616Z,40.57
2022-11-03T05:43:11.996Z,40.58
2022-11-03T05:43:36.779Z,40.57
2022-11-03T05:44:06.860Z,40.64
2022-11-03T05:44:37.024Z,40.63
2022-11-03T05:45:07.016Z,40.72
2022-11-03T05:45:37.104Z,40.79
2022-11-03T05:46:37.258Z,40.88
2022-11-03T05:47:08.374Z,40.96
2022-11-03T05:47:37.342Z,40.96
2022-11-03T05:48:07.771Z,40.88
2022-11-03T05:48:37.481Z,40.91
2022-11-03T05:49:07.564Z,41.10
2022-11-03T05:49:37.653Z,40.99
2022-11-03T05:50:07.737Z,41.09
2022-11-03T05:50:37.820Z,41.01
2022-11-03T05:51:07.898Z,40.96
2022-11-03T05:51:37.993Z,41.14
2022-11-03T05:52:08.077Z,41.19
2022-11-03T05:52:38.164Z,41.16
2022-11-03T05:53:08.244Z,41.23
2022-11-03T05:53:38.324Z,41.29
2022-11-03T05:54:08.405Z,41.37
2022-11-03T05:54:38.514Z,41.47
2022-11-03T05:55:08.492Z,41.51
2022-11-03T05:55:38.601Z,41.41
2022-11-03T05:56:08.669Z,41.55
2022-11-03T05:56:38.763Z,41.60
2022-11-03T05:57:08.860Z,41.64
2022-11-03T05:57:38.958Z,41.65
2022-11-03T05:58:09.398Z,41.65
2022-11-03T05:58:39.045Z,41.75
2022-11-03T05:59:09.128Z,41.74
2022-11-03T05:59:39.204Z,41.80
2022-11-03T06:00:09.283Z,41.80
2022-11-03T06:00:42.943Z,41.76
2022-11-03T06:01:09.436Z,41.72
2022-11-03T06:01:39.645Z,41.79
2022-11-03T06:02:09.731Z,41.83
2022-11-03T06:02:39.695Z,41.77
2022-11-03T06:03:09.675Z,41.74
2022-11-03T06:03:39.759Z,41.65
2022-11-03T06:04:09.838Z,41.63
2022-11-03T06:04:39.918Z,41.72
2022-11-03T06:05:10.006Z,41.71
2022-11-03T06:05:40.124Z,41.65
2022-11-03T06:06:10.088Z,41.80
2022-11-03T06:06:40.210Z,41.58
2022-11-03T06:07:10.187Z,41.60
2022-11-03T06:07:40.281Z,41.69
2022-11-03T06:08:10.692Z,41.72
2022-11-03T06:08:43.229Z,41.82
2022-11-03T06:09:10.486Z,41.81
2022-11-03T06:09:40.573Z,41.70
2022-11-03T06:10:10.653Z,41.79
2022-11-03T06:10:40.764Z,41.70
2022-11-03T06:11:10.829Z,41.78
2022-11-03T06:11:40.922Z,41.79
2022-11-03T06:12:11.006Z,41.83
2022-11-03T06:12:41.093Z,41.82
2022-11-03T06:13:11.171Z,41.85
2022-11-03T06:13:41.272Z,41.83
2022-11-03T06:14:11.259Z,41.91
2022-11-03T06:14:41.354Z,41.91
2022-11-03T06:15:11.438Z,41.90
2022-11-03T06:15:41.523Z,41.90
2022-11-03T06:16:11.601Z,41.97
2022-11-03T06:16:41.740Z,41.95
2022-11-03T06:17:11.721Z,41.93
2022-11-03T06:17:41.804Z,41.97
2022-11-03T06:18:11.883Z,41.93
2022-11-03T06:18:41.961Z,41.89
2022-11-03T06:19:12.044Z,41.86
2022-11-03T06:19:42.137Z,41.89
2022-11-03T06:20:12.215Z,41.87
2022-11-03T06:20:42.283Z,41.84
2022-11-03T06:21:12.375Z,41.87
2022-11-03T06:21:44.646Z,41.94
2022-11-03T06:22:12.558Z,41.94
2022-11-03T06:22:42.637Z,41.91
2022-11-03T06:23:12.719Z,41.92
2022-11-03T06:23:42.806Z,41.91
2022-11-03T06:24:12.884Z,41.74
2022-11-03T06:24:42.960Z,41.68
2022-11-03T06:25:13.040Z,41.71
2022-11-03T06:25:43.145Z,41.73
2022-11-03T06:26:13.211Z,41.68
2022-11-03T06:26:43.304Z,41.69
2022-11-03T06:27:13.383Z,41.67
2022-11-03T06:27:43.462Z,41.74
2022-11-03T06:28:13.542Z,41.74